createdAt,value
2022-12-11T00:00:55.517Z,0.26
2022-12-11T00:03:23.328Z,0.27
2022-12-11T00:05:51.127Z,0.11
2022-12-11T00:08:18.941Z,0.14
2022-12-11T00:10:49.346Z,0.11
2022-12-11T00:13:17.087Z,0.11
2022-12-11T00:15:46.218Z,0.09
2022-12-11T00:18:14.681Z,0.08
2022-12-11T00:20:42.612Z,0.14
2022-12-11T00:23:10.830Z,0.11
2022-12-11T00:25:42.515Z,0.12
2022-12-11T00:28:10.323Z,0.13
2022-12-11T00:30:40.231Z,0.15
2022-12-11T00:33:09.364Z,0.19
2022-12-11T00:35:39.743Z,0.20
2022-12-11T00:38:07.610Z,0.18
2022-12-11T00:40:35.676Z,0.21
2022-12-11T00:43:03.642Z,0.23
2022-12-11T00:45:31.415Z,0.26
2022-12-11T00:47:59.155Z,0.31
2022-12-11T00:50:28.547Z,0.33
2022-12-11T00:52:56.327Z,0.32
2022-12-11T00:55:25.075Z,0.34
2022-12-11T00:57:52.909Z,0.37
2022-12-11T01:00:20.837Z,0.35
2022-12-11T01:02:48.596Z,0.36
2022-12-11T01:05:17.437Z,0.36
2022-12-11T01:07:46.582Z,0.39
2022-12-11T01:10:27.012Z,0.39
2022-12-11T01:12:56.924Z,0.39
2022-12-11T01:15:28.435Z,0.38
2022-12-11T01:17:56.540Z,0.36
2022-12-11T01:20:25.748Z,0.36
2022-12-11T01:22:55.929Z,0.36
2022-12-11T01:25:24.055Z,0.36
2022-12-11T01:27:52.851Z,0.37
2022-12-11T01:30:22.586Z,0.40
2022-12-11T01:32:50.924Z,0.39
2022-12-11T01:35:19.785Z,0.38
2022-12-11T01:37:47.792Z,0.39
2022-12-11T01:40:18.985Z,0.41
2022-12-11T01:42:46.835Z,0.43
2022-12-11T01:45:39.917Z,0.43
2022-12-11T01:48:11.147Z,0.46
2022-12-11T01:50:45.058Z,0.48
2022-12-11T01:53:17.252Z,0.42
2022-12-11T01:55:48.752Z,0.41
2022-12-11T01:58:19.396Z,0.39
2022-12-11T02:00:47.257Z,0.37
2022-12-11T02:03:15.529Z,0.38
2022-12-11T02:05:43.251Z,0.38
2022-12-11T02:08:12.388Z,0.38
2022-12-11T02:11:02.409Z,0.39
2022-12-11T02:13:39.109Z,0.41
2022-12-11T02:16:15.186Z,0.43
2022-12-11T02:18:49.709Z,0.47
2022-12-11T02:21:25.476Z,0.39
2022-12-11T02:24:17.981Z,0.40
2022-12-11T02:27:04.293Z,0.42
2022-12-11T02:29:38.540Z,0.41
2022-12-11T02:32:11.944Z,0.46
2022-12-11T02:34:44.034Z,0.48
2022-12-11T02:37:17.348Z,0.47
2022-12-11T02:39:48.108Z,0.49
2022-12-11T02:42:16.722Z,0.53
2022-12-11T02:44:48.060Z,0.55
2022-12-11T02:47:19.264Z,0.57
2022-12-11T02:49:50.578Z,0.55
2022-12-11T02:52:22.741Z,0.60
2022-12-11T02:54:54.583Z,0.58
2022-12-11T02:57:26.696Z,0.59
2022-12-11T02:59:55.955Z,0.48
2022-12-11T03:02:23.940Z,0.48
2022-12-11T03:04:52.027Z,0.53
2022-12-11T03:07:25.022Z,0.57
2022-12-11T03:09:53.223Z,0.52
2022-12-11T03:12:25.252Z,0.54
2022-12-11T03:14:53.328Z,0.60
2022-12-11T03:17:24.511Z,0.61
2022-12-11T03:20:03.245Z,0.63
2022-12-11T03:22:38.956Z,0.68
2022-12-11T03:25:11.431Z,0.65
2022-12-11T03:27:46.196Z,0.65
2022-12-11T03:30:17.829Z,0.71
2022-12-11T03:32:51.817Z,0.75
2022-12-11T03:35:24.018Z,0.80
2022-12-11T03:37:54.111Z,0.83
2022-12-11T03:40:25.661Z,0.85
2022-12-11T03:42:56.983Z,0.79
2022-12-11T03:45:26.871Z,0.79
2022-12-11T03:47:58.568Z,0.82
2022-12-11T03:50:29.464Z,0.83
2022-12-11T03:52:59.157Z,0.87
2022-12-11T03:55:29.044Z,0.86
2022-12-11T03:57:56.803Z,0.86
2022-12-11T04:00:25.140Z,0.84
2022-12-11T04:03:11.347Z,0.84
2022-12-11T04:05:43.099Z,0.82
2022-12-11T04:08:11.458Z,0.78
2022-12-11T04:10:39.459Z,0.77
2022-12-11T04:13:07.271Z,0.77
2022-12-11T04:15:34.224Z,0.78
2022-12-11T04:18:19.476Z,0.80
2022-12-11T04:21:06.162Z,0.83
2022-12-11T04:23:51.624Z,0.82
2022-12-11T04:26:21.589Z,0.81
2022-12-11T04:28:50.475Z,0.82
2022-12-11T04:31:21.534Z,0.81
2022-12-11T04:33:49.855Z,0.80
2022-12-11T04:36:19.014Z,0.79
2022-12-11T04:38:46.731Z,0.78
2022-12-11T04:41:16.959Z,0.73
2022-12-11T04:43:45.467Z,0.70
2022-12-11T04:46:15.266Z,0.69
2022-12-11T04:48:43.593Z,0.70
2022-12-11T04:51:12.067Z,0.72
2022-12-11T04:53:41.557Z,0.68
2022-12-11T04:56:11.041Z,0.68
2022-12-11T04:58:39.549Z,0.69
2022-12-11T05:01:09.479Z,0.71
2022-12-11T05:03:37.302Z,0.65
2022-12-11T05:06:05.388Z,0.67
2022-12-11T05:08:36.254Z,0.70
2022-12-11T05:11:07.287Z,0.66
2022-12-11T05:13:35.214Z,0.65
2022-12-11T05:16:05.563Z,0.68
2022-12-11T05:18:33.472Z,0.65
2022-12-11T05:21:03.311Z,0.67
2022-12-11T05:23:31.891Z,0.67
2022-12-11T05:26:01.095Z,0.67
2022-12-11T05:28:32.543Z,0.68
2022-12-11T05:31:00.884Z,0.63
2022-12-11T05:33:29.516Z,0.62
2022-12-11T05:35:57.319Z,0.66
2022-12-11T05:38:25.413Z,0.61
2022-12-11T05:40:59.840Z,0.62
2022-12-11T05:43:30.805Z,0.65
2022-12-11T05:46:08.204Z,0.69
2022-12-11T05:48:35.985Z,0.71
2022-12-11T05:51:04.744Z,0.63
2022-12-11T05:53:32.681Z,0.66
2022-12-11T05:56:03.473Z,0.55
2022-12-11T05:58:32.803Z,0.49
2022-12-11T06:01:01.505Z,0.54
2022-12-11T06:03:29.696Z,0.51
2022-12-11T06:05:57.474Z,0.51
2022-12-11T06:08:25.257Z,0.56
2022-12-11T06:10:53.021Z,0.58
2022-12-11T06:13:20.760Z,0.60
2022-12-11T06:15:49.982Z,0.62
2022-12-11T06:18:17.761Z,0.63
2022-12-11T06:20:45.812Z,0.57
2022-12-11T06:23:13.579Z,0.39
2022-12-11T06:25:41.760Z,0.39
2022-12-11T06:28:09.567Z,0.45
2022-12-11T06:30:37.288Z,0.49
2022-12-11T06:33:07.869Z,0.51
2022-12-11T06:35:41.647Z,0.54
2022-12-11T06:38:10.812Z,0.48
2022-12-11T06:40:38.818Z,0.50
2022-12-11T06:43:06.586Z,0.44
2022-12-11T06:45:34.454Z,0.38
2022-12-11T06:48:02.216Z,0.39
2022-12-11T06:50:31.425Z,0.40
2022-12-11T06:52:59.372Z,0.43
2022-12-11T06:55:27.202Z,0.46
2022-12-11T06:57:54.920Z,0.49
2022-12-11T07:00:22.835Z,0.50
2022-12-11T07:02:51.743Z,0.47
2022-12-11T07:05:19.487Z,0.47
2022-12-11T07:07:48.615Z,0.44
2022-12-11T07:10:16.751Z,0.39
2022-12-11T07:12:44.479Z,0.40
2022-12-11T07:15:12.652Z,0.39
2022-12-11T07:17:40.945Z,0.40
2022-12-11T07:20:09.866Z,0.45
2022-12-11T07:22:41.593Z,0.42
2022-12-11T07:25:13.988Z,0.43
2022-12-11T07:27:42.554Z,0.46
2022-12-11T07:30:11.713Z,0.47
2022-12-11T07:32:39.622Z,0.50
2022-12-11T07:35:08.096Z,0.47
2022-12-11T07:37:36.092Z,0.44
2022-12-11T07:40:04.208Z,0.42
2022-12-11T07:42:33.331Z,0.47
2022-12-11T07:45:01.056Z,0.49
2022-12-11T07:47:28.799Z,0.41
2022-12-11T07:49:56.878Z,0.34
2022-12-11T07:52:24.656Z,0.35
2022-12-11T07:54:52.487Z,0.38
2022-12-11T07:57:20.226Z,0.41
2022-12-11T07:59:49.347Z,0.42
2022-12-11T08:02:17.180Z,0.41
2022-12-11T08:04:44.911Z,0.41
2022-12-11T08:07:13.043Z,0.36
2022-12-11T08:09:41.116Z,0.35
2022-12-11T08:12:08.914Z,0.37
2022-12-11T08:14:36.683Z,0.38
2022-12-11T08:17:05.926Z,0.33
2022-12-11T08:19:33.767Z,0.33
2022-12-11T08:22:01.532Z,0.34
2022-12-11T08:24:29.307Z,0.38
2022-12-11T08:26:57.095Z,0.39
2022-12-11T08:29:24.900Z,0.44
2022-12-11T08:31:52.712Z,0.45
2022-12-11T08:34:21.828Z,0.43
2022-12-11T08:36:49.570Z,0.43
2022-12-11T08:39:17.286Z,0.42
2022-12-11T08:41:45.027Z,0.40
2022-12-11T08:44:16.592Z,0.44
2022-12-11T08:46:45.402Z,0.45
2022-12-11T08:49:13.163Z,0.43
2022-12-11T08:51:42.231Z,0.39
2022-12-11T08:54:10.865Z,0.33
2022-12-11T08:56:38.627Z,0.35
2022-12-11T08:59:06.816Z,0.33
2022-12-11T09:01:34.650Z,0.32
2022-12-11T09:04:02.682Z,0.30
2022-12-11T09:06:31.611Z,0.28
2022-12-11T09:09:02.188Z,0.19
2022-12-11T09:11:31.786Z,0.22
2022-12-11T09:14:03.744Z,0.26
2022-12-11T09:16:37.641Z,0.27
2022-12-11T09:19:05.510Z,0.36
2022-12-11T09:21:33.244Z,0.45
2022-12-11T09:24:02.778Z,0.54
2022-12-11T09:26:31.436Z,0.46
2022-12-11T09:28:59.789Z,0.55
2022-12-11T09:31:29.990Z,0.60
2022-12-11T09:34:00.103Z,0.67
2022-12-11T09:36:28.354Z,0.75
2022-12-11T09:38:56.240Z,0.73
2022-12-11T09:41:41.535Z,0.66
2022-12-11T09:44:35.541Z,0.69
2022-12-11T09:47:03.333Z,0.63
2022-12-11T09:49:38.696Z,0.65
2022-12-11T09:52:13.550Z,0.57
2022-12-11T09:54:48.964Z,0.50
2022-12-11T09:57:30.755Z,0.46
2022-12-11T10:00:29.787Z,0.50
2022-12-11T10:03:19.192Z,0.44
2022-12-11T10:06:02.652Z,0.47
2022-12-11T10:08:40.108Z,0.56
2022-12-11T10:11:29.231Z,0.69
2022-12-11T10:14:04.105Z,0.68
2022-12-11T10:16:37.590Z,0.63
2022-12-11T10:19:05.447Z,0.70
2022-12-11T10:21:39.885Z,0.76
2022-12-11T10:24:34.681Z,0.85
2022-12-11T10:27:15.868Z,1.01
2022-12-11T10:29:44.973Z,1.14
2022-12-11T10:32:23.406Z,1.26
2022-12-11T10:34:58.250Z,1.27
2022-12-11T10:37:26.171Z,1.29
2022-12-11T10:39:53.975Z,1.14
2022-12-11T10:42:22.983Z,1.14
2022-12-11T10:45:00.408Z,1.10
2022-12-11T10:47:29.081Z,0.93
2022-12-11T10:49:59.182Z,0.89
2022-12-11T10:52:31.604Z,1.02
2022-12-11T10:55:03.075Z,1.00
2022-12-11T10:57:33.075Z,1.09
2022-12-11T11:00:04.460Z,1.12
2022-12-11T11:02:35.776Z,1.23
2022-12-11T11:05:12.971Z,1.30
2022-12-11T11:07:40.892Z,1.18
2022-12-11T11:10:18.312Z,1.24
2022-12-11T11:12:48.193Z,1.15
2022-12-11T11:15:21.053Z,1.23
2022-12-11T11:17:55.499Z,1.24
2022-12-11T11:20:26.469Z,1.22
2022-12-11T11:22:57.042Z,1.32
2022-12-11T11:25:27.227Z,1.29
2022-12-11T11:27:56.676Z,1.15
2022-12-11T11:30:28.164Z,1.27
2022-12-11T11:32:58.141Z,1.24
2022-12-11T11:35:27.801Z,1.07
2022-12-11T11:38:02.532Z,1.13
2022-12-11T11:40:32.385Z,1.26
2022-12-11T11:43:11.066Z,1.36
2022-12-11T11:45:45.041Z,1.35
2022-12-11T11:48:26.126Z,1.39
2022-12-11T11:50:57.217Z,1.24
2022-12-11T11:53:31.472Z,1.16
2022-12-11T11:56:04.281Z,1.03
2022-12-11T11:58:41.120Z,0.98
2022-12-11T12:01:16.109Z,1.13
2022-12-11T12:03:44.449Z,1.12
2022-12-11T12:06:22.775Z,1.15
2022-12-11T12:08:59.808Z,1.17
2022-12-11T12:11:35.929Z,1.22
2022-12-11T12:14:43.663Z,1.27
2022-12-11T12:17:15.248Z,1.33
2022-12-11T12:19:50.555Z,1.44
2022-12-11T12:22:29.380Z,1.51
2022-12-11T12:25:08.242Z,1.53
2022-12-11T12:27:53.178Z,1.61
2022-12-11T12:30:23.414Z,1.58
2022-12-11T12:33:07.078Z,1.59
2022-12-11T12:35:36.895Z,1.67
2022-12-11T12:38:16.310Z,1.63
2022-12-11T12:41:01.054Z,1.61
2022-12-11T12:43:52.829Z,1.58
2022-12-11T12:46:29.986Z,1.65
2022-12-11T12:49:00.487Z,1.62
2022-12-11T12:51:29.779Z,1.60
2022-12-11T12:54:01.185Z,1.65
2022-12-11T12:56:30.157Z,1.68
2022-12-11T12:58:57.985Z,1.69
2022-12-11T13:01:28.402Z,1.66
2022-12-11T13:03:59.698Z,1.66
2022-12-11T13:06:37.608Z,1.64
2022-12-11T13:09:16.200Z,1.65
2022-12-11T13:11:45.281Z,1.68
2022-12-11T13:14:28.018Z,1.67
2022-12-11T13:17:09.291Z,1.68
2022-12-11T13:19:42.576Z,1.64
2022-12-11T13:22:23.499Z,1.68
2022-12-11T13:24:59.654Z,1.52
2022-12-11T13:27:37.476Z,1.57
2022-12-11T13:30:07.807Z,1.57
2022-12-11T13:32:35.990Z,1.55
2022-12-11T13:35:08.790Z,1.37
2022-12-11T13:37:41.132Z,1.46
2022-12-11T13:40:25.475Z,1.53
2022-12-11T13:42:57.672Z,1.59
2022-12-11T13:45:29.919Z,1.59
2022-12-11T13:47:59.603Z,1.65
2022-12-11T13:50:32.107Z,1.62
2022-12-11T13:53:01.825Z,1.54
2022-12-11T13:55:32.031Z,1.56
2022-12-11T13:57:59.932Z,1.55
2022-12-11T14:00:32.127Z,1.51
2022-12-11T14:03:03.535Z,1.35
2022-12-11T14:05:32.530Z,1.21
2022-12-11T14:08:07.476Z,1.07
2022-12-11T14:10:35.336Z,1.03
2022-12-11T14:13:06.573Z,1.07
2022-12-11T14:15:37.185Z,1.18
2022-12-11T14:18:06.462Z,1.26
2022-12-11T14:20:35.875Z,1.36
2022-12-11T14:23:07.972Z,1.40
2022-12-11T14:25:35.716Z,1.42
2022-12-11T14:28:04.180Z,1.41
2022-12-11T14:30:35.417Z,1.37
2022-12-11T14:33:06.576Z,1.32
2022-12-11T14:35:40.855Z,1.35
2022-12-11T14:38:17.588Z,1.41
2022-12-11T14:40:51.191Z,1.43
2022-12-11T14:43:24.428Z,1.47
2022-12-11T14:45:56.923Z,1.51
2022-12-11T14:48:29.501Z,1.41
2022-12-11T14:51:02.644Z,1.27
2022-12-11T14:53:36.936Z,1.22
2022-12-11T14:56:07.689Z,1.29
2022-12-11T14:58:41.444Z,1.32
2022-12-11T15:01:23.262Z,1.27
2022-12-11T15:03:51.103Z,1.31
2022-12-11T15:06:26.947Z,1.36
2022-12-11T15:08:55.705Z,1.38
2022-12-11T15:11:26.349Z,1.33
2022-12-11T15:13:58.676Z,1.35
2022-12-11T15:16:29.468Z,1.33
2022-12-11T15:18:58.819Z,1.14
2022-12-11T15:21:33.232Z,1.13
2022-12-11T15:24:04.109Z,1.21
2022-12-11T15:26:37.558Z,1.27
2022-12-11T15:29:08.104Z,1.33
2022-12-11T15:31:36.020Z,1.39
2022-12-11T15:34:04.093Z,1.40
2022-12-11T15:36:35.706Z,1.42
2022-12-11T15:39:08.622Z,1.45
2022-12-11T15:41:36.534Z,1.48
2022-12-11T15:44:05.381Z,1.51
2022-12-11T15:46:37.940Z,1.52
2022-12-11T15:49:12.430Z,1.53
2022-12-11T15:51:43.317Z,1.49
2022-12-11T15:54:11.456Z,1.38
2022-12-11T15:56:39.905Z,1.33
2022-12-11T15:59:07.934Z,1.24
2022-12-11T16:01:35.784Z,1.11
2022-12-11T16:04:05.402Z,1.02
2022-12-11T16:06:33.780Z,0.98
2022-12-11T16:09:05.025Z,0.92
2022-12-11T16:11:32.779Z,0.93
2022-12-11T16:14:03.437Z,1.01
2022-12-11T16:16:31.264Z,1.08
2022-12-11T16:18:59.039Z,1.09
2022-12-11T16:21:26.823Z,1.15
2022-12-11T16:23:54.570Z,1.12
2022-12-11T16:26:23.719Z,1.18
2022-12-11T16:28:51.487Z,1.13
2022-12-11T16:31:19.391Z,1.07
2022-12-11T16:33:47.266Z,1.01
2022-12-11T16:36:15.906Z,1.03
2022-12-11T16:38:51.368Z,1.08
2022-12-11T16:41:20.816Z,1.02
2022-12-11T16:43:50.145Z,0.94
2022-12-11T16:46:18.917Z,0.99
2022-12-11T16:48:46.703Z,1.01
2022-12-11T16:51:14.511Z,1.07
2022-12-11T16:53:42.259Z,1.09
2022-12-11T16:56:10.732Z,1.11
2022-12-11T16:58:38.450Z,1.17
2022-12-11T17:01:13.796Z,1.09
2022-12-11T17:03:42.801Z,1.07
2022-12-11T17:06:12.281Z,0.92
2022-12-11T17:08:40.052Z,0.95
2022-12-11T17:11:09.887Z,1.04
2022-12-11T17:13:38.156Z,1.12
2022-12-11T17:16:06.678Z,1.11
2022-12-11T17:18:36.143Z,1.13
2022-12-11T17:21:07.734Z,1.17
2022-12-11T17:23:36.077Z,1.18
2022-12-11T17:26:04.651Z,1.18
2022-12-11T17:28:33.071Z,1.19
2022-12-11T17:31:00.849Z,1.18
2022-12-11T17:33:28.827Z,1.18
2022-12-11T17:36:00.817Z,1.23
2022-12-11T17:38:28.665Z,1.30
2022-12-11T17:40:56.768Z,1.26
2022-12-11T17:43:24.694Z,1.22
2022-12-11T17:45:53.469Z,1.07
2022-12-11T17:48:23.018Z,0.96
2022-12-11T17:50:52.039Z,0.90
2022-12-11T17:53:22.047Z,0.84
2022-12-11T17:55:51.845Z,0.81
2022-12-11T17:58:21.774Z,0.84
2022-12-11T18:00:51.913Z,0.94
2022-12-11T18:03:19.997Z,1.00
2022-12-11T18:05:50.438Z,0.99
2022-12-11T18:08:20.086Z,1.05
2022-12-11T18:10:49.324Z,0.99
2022-12-11T18:13:17.364Z,1.02
2022-12-11T18:15:45.230Z,1.07
2022-12-11T18:18:13.038Z,1.11
2022-12-11T18:20:40.963Z,1.02
2022-12-11T18:23:08.756Z,0.87
2022-12-11T18:25:36.526Z,0.93
2022-12-11T18:28:06.365Z,0.97
2022-12-11T18:30:34.124Z,1.03
2022-12-11T18:33:01.885Z,0.92
2022-12-11T18:35:29.832Z,0.98
2022-12-11T18:37:57.692Z,1.00
2022-12-11T18:40:25.422Z,1.05
2022-12-11T18:42:53.225Z,1.10
2022-12-11T18:45:22.610Z,1.14
2022-12-11T18:47:51.489Z,1.05
2022-12-11T18:50:19.880Z,1.12
2022-12-11T18:52:47.615Z,1.05
2022-12-11T18:55:15.468Z,0.99
2022-12-11T18:57:43.222Z,0.99
2022-12-11T19:00:12.329Z,0.98
2022-12-11T19:02:41.440Z,0.97
2022-12-11T19:05:09.805Z,0.90
2022-12-11T19:07:37.778Z,0.94
2022-12-11T19:10:06.997Z,0.97
2022-12-11T19:12:34.760Z,1.01
2022-12-11T19:15:02.545Z,0.93
2022-12-11T19:17:30.734Z,0.90
2022-12-11T19:20:05.218Z,0.93
2022-12-11T19:22:37.012Z,0.91
2022-12-11T19:25:06.251Z,0.92
2022-12-11T19:27:34.060Z,0.87
2022-12-11T19:30:01.796Z,0.87
2022-12-11T19:32:36.036Z,0.91
2022-12-11T19:35:05.984Z,0.93
2022-12-11T19:37:33.907Z,0.96
2022-12-11T19:40:01.754Z,1.00
2022-12-11T19:42:29.632Z,1.00
2022-12-11T19:44:57.351Z,0.98
2022-12-11T19:47:25.071Z,0.96
2022-12-11T19:49:52.880Z,0.99
2022-12-11T19:52:22.112Z,1.01
2022-12-11T19:54:49.880Z,1.01
2022-12-11T19:57:17.680Z,0.85
2022-12-11T19:59:45.457Z,0.73
2022-12-11T20:02:13.456Z,0.59
2022-12-11T20:04:41.208Z,0.64
2022-12-11T20:07:09.009Z,0.70
2022-12-11T20:09:38.151Z,0.76
2022-12-11T20:12:10.204Z,0.80
2022-12-11T20:14:38.653Z,0.80
2022-12-11T20:17:12.361Z,0.74
2022-12-11T20:19:41.483Z,0.73
2022-12-11T20:22:10.102Z,0.72
2022-12-11T20:24:39.664Z,0.72
2022-12-11T20:27:09.500Z,0.74
2022-12-11T20:29:38.798Z,0.78
2022-12-11T20:32:07.376Z,0.88
2022-12-11T20:34:35.399Z,0.77
2022-12-11T20:37:03.290Z,0.69
2022-12-11T20:39:31.963Z,0.64
2022-12-11T20:42:04.698Z,0.70
2022-12-11T20:44:32.973Z,0.73
2022-12-11T20:47:00.767Z,0.76
2022-12-11T20:49:28.553Z,0.82
2022-12-11T20:51:56.739Z,0.72
2022-12-11T20:54:24.520Z,0.68
2022-12-11T20:56:52.739Z,0.67
2022-12-11T20:59:21.881Z,0.77
2022-12-11T21:01:50.294Z,0.74
2022-12-11T21:04:19.006Z,0.73
2022-12-11T21:06:55.068Z,0.71
2022-12-11T21:09:25.382Z,0.73
2022-12-11T21:11:53.559Z,0.80
2022-12-11T21:14:22.657Z,0.89
2022-12-11T21:16:50.498Z,0.92
2022-12-11T21:19:20.112Z,0.79
2022-12-11T21:21:48.601Z,0.81
2022-12-11T21:24:19.389Z,0.78
2022-12-11T21:26:47.353Z,0.76
2022-12-11T21:29:15.734Z,0.80
2022-12-11T21:31:44.931Z,0.76
2022-12-11T21:34:12.736Z,0.77
2022-12-11T21:36:40.728Z,0.83
2022-12-11T21:39:08.560Z,0.91
2022-12-11T21:41:36.312Z,0.84
2022-12-11T21:46:53.379Z,0.91
2022-12-11T21:49:21.611Z,0.91
2022-12-11T21:51:49.802Z,0.98
2022-12-11T21:54:19.642Z,1.00
2022-12-11T21:56:48.307Z,1.06
2022-12-11T21:59:16.509Z,1.13
2022-12-11T22:01:46.980Z,1.09
2022-12-11T22:04:16.508Z,1.00
2022-12-11T22:06:46.978Z,0.99
2022-12-11T22:09:16.021Z,0.87
2022-12-11T22:11:45.117Z,0.91
2022-12-11T22:14:13.783Z,0.95
2022-12-11T22:16:41.815Z,0.90
2022-12-11T22:19:15.170Z,0.92
2022-12-11T22:21:44.276Z,0.96
2022-12-11T22:24:12.066Z,1.01
2022-12-11T22:26:40.300Z,0.99
2022-12-11T22:29:08.260Z,0.70
2022-12-11T22:31:36.009Z,0.47
2022-12-11T22:34:03.730Z,0.39
2022-12-11T22:36:31.484Z,0.36
2022-12-11T22:39:01.279Z,0.40
2022-12-11T22:41:31.417Z,0.41
2022-12-11T22:43:59.575Z,0.37
2022-12-11T22:46:29.153Z,0.27
2022-12-11T22:48:56.909Z,0.30
2022-12-11T22:51:25.830Z,0.35
2022-12-11T22:53:53.594Z,0.37
2022-12-11T22:56:22.687Z,0.40
2022-12-11T22:58:50.428Z,0.45
2022-12-11T23:01:20.592Z,0.36
2022-12-11T23:03:49.204Z,0.41
2022-12-11T23:06:20.150Z,0.50
2022-12-11T23:08:48.090Z,0.44
2022-12-11T23:11:18.132Z,0.31
2022-12-11T23:13:47.249Z,0.37
2022-12-11T23:16:15.602Z,0.33
2022-12-11T23:18:44.329Z,0.21
2022-12-11T23:21:13.196Z,0.19
2022-12-11T23:23:41.232Z,0.13
2022-12-11T23:26:11.069Z,0.13
2022-12-11T23:28:39.588Z,0.20
2022-12-11T23:31:09.833Z,0.23
2022-12-11T23:33:37.956Z,0.26
2022-12-11T23:36:06.674Z,0.30
2022-12-11T23:38:34.635Z,0.31
2022-12-11T23:41:04.049Z,0.29
2022-12-11T23:43:32.247Z,0.36
2022-12-11T23:46:00.103Z,0.40
2022-12-11T23:48:29.296Z,0.36
2022-12-11T23:51:00.342Z,0.26
2022-12-11T23:53:28.917Z,0.24
2022-12-11T23:55:57.035Z,0.17
2022-12-11T23:58:24.762Z,0.24
